createdAt,value
2022-07-31T01:11:43.200Z,0.00
2022-07-31T01:12:36.988Z,0.00
2022-07-31T01:21:36.886Z,0.00
2022-07-31T01:25:36.846Z,0.00
2022-07-31T01:40:36.696Z,0.00
2022-07-31T01:41:36.679Z,0.00
2022-07-31T02:07:36.407Z,0.00
2022-07-31T02:25:36.224Z,0.00
2022-07-31T02:27:54.419Z,0.00
2022-07-31T02:41:36.052Z,0.00
2022-07-31T02:44:36.017Z,0.00
2022-07-31T02:47:35.989Z,0.00
2022-07-31T02:49:35.967Z,0.00
2022-07-31T02:59:35.863Z,0.00
2022-07-31T03:00:35.886Z,0.00
2022-07-31T03:03:35.816Z,0.00
2022-07-31T03:09:35.757Z,0.00
2022-07-31T03:13:35.717Z,0.00
2022-07-31T03:14:35.718Z,0.00
2022-07-31T03:15:35.690Z,0.00
2022-07-31T03:16:35.681Z,0.00
2022-07-31T03:17:38.072Z,0.00
2022-07-31T03:18:35.660Z,0.00
2022-07-31T03:19:35.649Z,0.00
2022-07-31T03:20:35.639Z,0.00
2022-07-31T03:21:35.629Z,0.00
2022-07-31T03:22:35.620Z,0.00
2022-07-31T03:23:35.606Z,0.00
2022-07-31T03:24:35.597Z,0.00
2022-07-31T03:25:35.799Z,0.00
2022-07-31T03:26:35.577Z,0.00
2022-07-31T03:27:35.568Z,0.00
2022-07-31T03:28:35.676Z,0.00
2022-07-31T03:29:42.673Z,0.00
2022-07-31T03:30:35.534Z,0.00
2022-07-31T03:31:35.469Z,1.00
2022-07-31T03:32:35.469Z,1.00
2022-07-31T03:33:35.452Z,1.00
2022-07-31T03:34:35.440Z,1.00
2022-07-31T03:35:42.181Z,1.00
2022-07-31T03:36:36.455Z,2.00
2022-07-31T03:37:35.424Z,2.00
2022-07-31T03:38:40.634Z,2.00
2022-07-31T03:39:36.425Z,1.00
2022-07-31T03:40:35.376Z,1.00
2022-07-31T03:41:35.369Z,2.00
2022-07-31T03:42:35.353Z,2.00
2022-07-31T03:43:44.073Z,3.00
2022-07-31T03:44:36.371Z,6.00
2022-07-31T03:45:35.330Z,4.00
2022-07-31T03:46:35.316Z,5.00
2022-07-31T03:47:35.308Z,7.00
2022-07-31T03:48:35.289Z,7.00
2022-07-31T03:49:35.415Z,5.00
2022-07-31T03:50:35.276Z,8.00
2022-07-31T03:51:35.259Z,8.00
2022-07-31T03:52:35.253Z,10.00
2022-07-31T03:53:35.239Z,13.00
2022-07-31T03:54:35.436Z,14.00
2022-07-31T03:55:35.235Z,17.00
2022-07-31T03:56:35.208Z,18.00
2022-07-31T03:57:35.202Z,18.00
2022-07-31T03:58:36.688Z,18.00
2022-07-31T03:59:40.591Z,21.00
2022-07-31T04:00:36.257Z,24.00
2022-07-31T04:01:58.397Z,26.00
2022-07-31T04:02:36.220Z,28.00
2022-07-31T04:03:35.140Z,33.00
2022-07-31T04:04:35.128Z,35.00
2022-07-31T04:06:35.136Z,44.00
2022-07-31T04:07:35.090Z,47.00
2022-07-31T04:08:35.078Z,51.00
2022-07-31T04:09:35.074Z,55.00
2022-07-31T04:12:35.043Z,59.00
2022-07-31T04:13:35.042Z,64.00
2022-07-31T04:14:35.022Z,66.00
2022-07-31T04:15:35.012Z,74.00
2022-07-31T04:16:35.005Z,80.00
2022-07-31T04:17:34.985Z,84.00
2022-07-31T04:18:35.133Z,90.00
2022-07-31T04:19:34.966Z,98.00
2022-07-31T04:20:34.957Z,102.00
2022-07-31T04:21:34.957Z,115.00
2022-07-31T04:22:34.933Z,117.00
2022-07-31T04:23:34.925Z,122.00
2022-07-31T04:24:34.912Z,124.00
2022-07-31T04:25:34.902Z,121.00
2022-07-31T04:26:34.891Z,123.00
2022-07-31T04:27:48.059Z,123.00
2022-07-31T04:28:35.915Z,131.00
2022-07-31T04:29:34.868Z,140.00
2022-07-31T04:30:34.847Z,143.00
2022-07-31T04:31:34.837Z,143.00
2022-07-31T04:32:34.833Z,136.00
2022-07-31T04:33:34.816Z,132.00
2022-07-31T04:34:34.808Z,137.00
2022-07-31T04:35:34.799Z,147.00
2022-07-31T04:36:34.799Z,161.00
2022-07-31T04:37:34.799Z,175.00
2022-07-31T04:38:34.769Z,185.00
2022-07-31T04:39:34.755Z,193.00
2022-07-31T04:40:34.750Z,201.00
2022-07-31T04:41:34.741Z,205.00
2022-07-31T04:42:34.737Z,201.00
2022-07-31T04:43:34.714Z,212.00
2022-07-31T04:44:34.704Z,250.00
2022-07-31T04:45:34.692Z,274.00
2022-07-31T04:46:34.684Z,288.00
2022-07-31T04:47:34.674Z,303.00
2022-07-31T04:48:34.669Z,314.00
2022-07-31T04:49:34.772Z,322.00
2022-07-31T04:50:34.638Z,332.00
2022-07-31T04:51:34.631Z,340.00
2022-07-31T04:52:34.724Z,346.00
2022-07-31T04:53:34.809Z,364.00
2022-07-31T04:54:34.600Z,385.00
2022-07-31T04:55:34.589Z,389.00
2022-07-31T04:56:34.576Z,393.00
2022-07-31T04:57:34.576Z,399.00
2022-07-31T04:58:34.561Z,400.00
2022-07-31T04:59:59.150Z,410.00
2022-07-31T05:00:35.573Z,430.00
2022-07-31T05:01:34.590Z,447.00
2022-07-31T05:02:34.517Z,481.00
2022-07-31T05:03:34.505Z,506.00
2022-07-31T05:04:34.496Z,522.00
2022-07-31T05:05:34.665Z,541.00
2022-07-31T05:06:34.473Z,559.00
2022-07-31T05:07:34.471Z,572.00
2022-07-31T05:08:34.451Z,563.00
2022-07-31T05:09:34.441Z,574.00
2022-07-31T05:10:34.429Z,578.00
2022-07-31T05:11:34.417Z,606.00
2022-07-31T05:12:34.407Z,632.00
2022-07-31T05:13:34.398Z,655.00
2022-07-31T05:14:34.593Z,677.00
2022-07-31T05:15:34.377Z,703.00
2022-07-31T05:16:34.378Z,745.00
2022-07-31T05:17:34.360Z,778.00
2022-07-31T05:18:34.344Z,799.00
2022-07-31T05:19:34.540Z,871.00
2022-07-31T05:20:34.337Z,798.00
2022-07-31T05:21:34.311Z,936.00
2022-07-31T05:22:35.548Z,1074.00
2022-07-31T05:23:34.296Z,1050.00
2022-07-31T05:24:34.464Z,1137.00
2022-07-31T05:25:34.273Z,1044.00
2022-07-31T05:26:34.284Z,1034.00
2022-07-31T05:27:38.952Z,1019.00
2022-07-31T05:28:34.238Z,991.00
2022-07-31T05:29:34.244Z,978.00
2022-07-31T05:30:34.229Z,965.00
2022-07-31T05:31:34.215Z,961.00
2022-07-31T05:32:34.205Z,966.00
2022-07-31T05:33:34.191Z,987.00
2022-07-31T05:34:34.180Z,1008.00
2022-07-31T05:35:34.167Z,1052.00
2022-07-31T05:36:34.157Z,1079.00
2022-07-31T05:37:34.147Z,1101.00
2022-07-31T05:38:34.140Z,1105.00
2022-07-31T05:39:34.123Z,1102.00
2022-07-31T05:40:34.123Z,1079.00
2022-07-31T05:41:34.122Z,1077.00
2022-07-31T05:42:34.091Z,1087.00
2022-07-31T05:44:08.787Z,1175.00
2022-07-31T05:45:08.764Z,1181.00
2022-07-31T05:46:08.761Z,1153.00
2022-07-31T05:47:08.741Z,1101.00
2022-07-31T05:48:08.732Z,1082.00
2022-07-31T05:49:08.795Z,1151.00
2022-07-31T05:50:08.709Z,1209.00
2022-07-31T05:51:08.697Z,1193.00
2022-07-31T05:52:08.696Z,1152.00
2022-07-31T05:53:08.678Z,1187.00
2022-07-31T05:54:08.662Z,1212.00
2022-07-31T05:55:08.859Z,1266.00
2022-07-31T05:56:08.651Z,1289.00
2022-07-31T05:57:33.615Z,1318.00
2022-07-31T05:58:13.578Z,1363.00
2022-07-31T05:59:09.662Z,1366.00
2022-07-31T06:00:08.609Z,1406.00
2022-07-31T06:01:08.630Z,1480.00
2022-07-31T06:02:08.863Z,1520.00
2022-07-31T06:03:08.571Z,1659.00
2022-07-31T06:04:08.559Z,1788.00
2022-07-31T06:05:14.562Z,1808.00
2022-07-31T06:06:08.538Z,1863.00
2022-07-31T06:07:08.532Z,1874.00
2022-07-31T06:08:08.720Z,2162.00
2022-07-31T06:09:08.507Z,2047.00
2022-07-31T06:10:08.497Z,2133.00
2022-07-31T06:11:08.485Z,2083.00
2022-07-31T06:12:08.475Z,2078.00
2022-07-31T06:13:08.471Z,2003.00
2022-07-31T06:14:08.457Z,2632.00
2022-07-31T06:15:08.456Z,2421.00
2022-07-31T06:16:08.433Z,2452.00
2022-07-31T06:17:08.423Z,2425.00
2022-07-31T06:18:08.417Z,2349.00
2022-07-31T06:19:08.409Z,2520.00
2022-07-31T06:20:14.409Z,2498.00
2022-07-31T06:21:08.382Z,2454.00
2022-07-31T06:22:08.918Z,2475.00
2022-07-31T06:23:14.564Z,2499.00
2022-07-31T06:24:09.399Z,2438.00
2022-07-31T06:25:08.345Z,2458.00
2022-07-31T06:26:08.327Z,2416.00
2022-07-31T06:27:08.698Z,2360.00
2022-07-31T06:28:10.764Z,2361.00
2022-07-31T06:29:08.301Z,2313.00
2022-07-31T06:30:08.293Z,2343.00
2022-07-31T06:31:08.277Z,2160.00
2022-07-31T06:32:08.267Z,772.00
2022-07-31T06:33:08.698Z,2133.00
2022-07-31T06:34:09.485Z,2364.00
2022-07-31T06:35:08.235Z,1430.00
2022-07-31T06:36:08.227Z,1324.00
2022-07-31T06:37:08.214Z,1428.00
2022-07-31T06:38:08.217Z,2283.00
2022-07-31T06:39:14.208Z,2019.00
2022-07-31T06:40:08.190Z,1667.00
2022-07-31T06:41:08.195Z,1833.00
2022-07-31T06:42:08.168Z,2300.00
2022-07-31T06:43:08.156Z,2806.00
2022-07-31T06:44:08.141Z,1841.00
2022-07-31T06:45:08.137Z,2079.00
2022-07-31T06:46:08.120Z,2497.00
2022-07-31T06:47:13.988Z,2156.00
2022-07-31T06:48:09.132Z,2211.00
2022-07-31T06:49:09.007Z,1906.00
2022-07-31T06:50:08.282Z,2508.00
2022-07-31T06:51:29.890Z,2259.00
2022-07-31T06:52:09.099Z,2177.00
2022-07-31T06:53:08.050Z,2431.00
2022-07-31T06:54:08.036Z,2369.00
2022-07-31T06:55:10.085Z,2271.00
2022-07-31T06:56:08.020Z,2206.00
2022-07-31T06:57:08.011Z,2210.00
2022-07-31T06:58:08.006Z,2179.00
2022-07-31T06:59:07.988Z,2164.00
2022-07-31T07:00:19.839Z,2201.00
2022-07-31T07:01:09.132Z,2229.00
2022-07-31T07:02:08.500Z,2263.00
2022-07-31T07:03:07.960Z,2302.00
2022-07-31T07:04:07.942Z,2313.00
2022-07-31T07:05:13.934Z,2274.00
2022-07-31T07:06:07.920Z,2198.00
2022-07-31T07:07:07.908Z,1939.00
2022-07-31T07:08:07.897Z,1177.00
2022-07-31T07:09:07.886Z,3256.00
2022-07-31T07:10:07.879Z,2143.00
2022-07-31T07:11:11.984Z,2140.00
2022-07-31T07:12:08.262Z,2323.00
2022-07-31T07:13:15.850Z,2225.00
2022-07-31T07:14:07.834Z,2370.00
2022-07-31T07:15:07.829Z,2361.00
2022-07-31T07:16:07.809Z,2250.00
2022-07-31T07:17:07.805Z,2194.00
2022-07-31T07:18:07.789Z,2099.00
2022-07-31T07:19:38.529Z,2088.00
2022-07-31T07:20:38.512Z,1990.00
2022-07-31T07:21:38.498Z,2019.00
2022-07-31T07:22:38.493Z,2138.00
2022-07-31T07:23:38.541Z,2142.00
2022-07-31T07:24:38.464Z,2024.00
2022-07-31T07:25:38.459Z,1984.00
2022-07-31T07:26:38.450Z,2082.00
2022-07-31T07:27:38.432Z,1524.00
2022-07-31T07:28:38.426Z,3322.00
2022-07-31T07:29:38.418Z,2610.00
2022-07-31T07:30:38.406Z,2343.00
2022-07-31T07:31:38.395Z,3487.00
2022-07-31T07:32:44.394Z,1918.00
2022-07-31T07:33:44.395Z,3613.00
2022-07-31T07:34:38.366Z,2697.00
2022-07-31T07:35:38.350Z,3014.00
2022-07-31T07:36:44.346Z,2531.00
2022-07-31T07:37:38.920Z,3026.00
2022-07-31T07:38:38.321Z,2156.00
2022-07-31T07:39:38.314Z,3181.00
2022-07-31T07:40:38.297Z,2729.00
2022-07-31T07:41:38.291Z,2517.00
2022-07-31T07:42:38.278Z,2506.00
2022-07-31T07:43:38.266Z,2764.00
2022-07-31T07:44:38.257Z,2354.00
2022-07-31T07:45:38.248Z,2664.00
2022-07-31T07:46:38.236Z,3358.00
2022-07-31T07:48:05.538Z,4539.00
2022-07-31T07:48:39.347Z,1425.00
2022-07-31T07:49:38.204Z,5869.00
2022-07-31T07:50:38.196Z,1777.00
2022-07-31T07:51:38.187Z,3135.00
2022-07-31T07:52:43.635Z,2899.00
2022-07-31T07:53:38.229Z,3160.00
2022-07-31T07:54:38.159Z,4769.00
2022-07-31T07:55:38.144Z,4557.00
2022-07-31T07:56:38.150Z,3474.00
2022-07-31T07:57:38.130Z,2927.00
2022-07-31T07:58:38.320Z,2984.00
2022-07-31T07:59:38.100Z,3216.00
2022-07-31T08:00:38.092Z,3258.00
2022-07-31T08:01:38.324Z,3076.00
2022-07-31T08:02:38.087Z,1632.00
2022-07-31T08:03:50.829Z,5143.00
2022-07-31T08:04:39.086Z,1849.00
2022-07-31T08:05:38.042Z,3648.00
2022-07-31T08:06:38.032Z,3449.00
2022-07-31T08:07:42.714Z,4360.00
2022-07-31T08:08:38.016Z,3970.00
2022-07-31T08:09:38.001Z,3748.00
2022-07-31T08:10:37.990Z,4613.00
2022-07-31T08:11:37.985Z,3962.00
2022-07-31T08:12:37.970Z,4202.00
2022-07-31T08:13:38.134Z,3282.00
2022-07-31T08:14:37.952Z,4455.00
2022-07-31T08:15:37.939Z,3223.00
2022-07-31T08:16:37.928Z,3814.00
2022-07-31T08:17:37.919Z,3883.00
2022-07-31T08:18:37.906Z,3887.00
2022-07-31T08:19:37.904Z,3900.00
2022-07-31T08:20:37.893Z,3941.00
2022-07-31T08:21:37.881Z,3926.00
2022-07-31T08:22:37.872Z,3970.00
2022-07-31T08:23:43.870Z,3972.00
2022-07-31T08:24:37.849Z,4004.00
2022-07-31T08:25:37.844Z,4012.00
2022-07-31T08:26:37.839Z,4057.00
2022-07-31T08:27:40.503Z,4074.00
2022-07-31T08:28:37.808Z,4093.00
2022-07-31T08:29:37.905Z,4140.00
2022-07-31T08:30:37.792Z,4158.00
2022-07-31T08:31:37.784Z,4178.00
2022-07-31T08:32:37.781Z,4223.00
2022-07-31T08:33:37.762Z,4250.00
2022-07-31T08:34:41.780Z,4277.00
2022-07-31T08:35:37.742Z,4298.00
2022-07-31T08:36:37.931Z,4309.00
2022-07-31T08:37:51.716Z,4342.00
2022-07-31T08:38:38.749Z,4382.00
2022-07-31T08:39:43.710Z,4393.00
2022-07-31T08:40:43.841Z,4429.00
2022-07-31T08:41:37.685Z,4473.00
2022-07-31T08:42:37.675Z,4494.00
2022-07-31T08:44:00.636Z,4513.00
2022-07-31T08:44:38.896Z,4551.00
2022-07-31T08:45:43.658Z,4570.00
2022-07-31T08:46:37.635Z,4628.00
2022-07-31T08:48:51.209Z,4722.00
2022-07-31T08:49:51.112Z,4705.00
2022-07-31T08:50:53.909Z,4726.00
2022-07-31T08:51:52.863Z,4764.00
2022-07-31T08:52:51.077Z,4785.00
2022-07-31T08:53:51.273Z,4827.00
2022-07-31T08:54:51.058Z,4864.00
2022-07-31T08:55:55.420Z,4881.00
2022-07-31T08:56:52.077Z,4914.00
2022-07-31T08:57:51.033Z,4898.00
2022-07-31T08:58:51.019Z,4953.00
2022-07-31T08:59:57.019Z,4978.00
2022-07-31T09:00:51.287Z,4996.00
2022-07-31T09:01:51.414Z,5012.00
2022-07-31T09:02:51.184Z,5035.00
2022-07-31T09:03:50.976Z,5080.00
2022-07-31T09:04:52.741Z,5106.00
2022-07-31T09:05:50.959Z,5142.00
2022-07-31T09:06:50.956Z,5150.00
2022-07-31T09:07:51.144Z,5203.00
2022-07-31T09:08:50.932Z,5240.00
2022-07-31T09:09:52.393Z,5263.00
2022-07-31T09:10:50.915Z,5284.00
2022-07-31T09:11:56.914Z,5350.00
2022-07-31T09:12:50.897Z,5371.00
2022-07-31T09:14:01.926Z,5386.00
2022-07-31T09:14:51.918Z,5411.00
2022-07-31T09:15:50.878Z,5464.00
2022-07-31T09:16:50.878Z,5491.00
2022-07-31T09:17:53.777Z,5546.00
2022-07-31T09:18:51.053Z,5535.00
2022-07-31T09:19:52.371Z,5540.00
2022-07-31T09:20:56.850Z,5648.00
2022-07-31T09:21:51.027Z,5700.00
2022-07-31T09:22:56.818Z,5762.00
2022-07-31T09:23:51.025Z,5785.00
2022-07-31T09:24:50.813Z,5794.00
2022-07-31T09:25:56.814Z,5752.00
2022-07-31T09:26:50.778Z,5771.00
2022-07-31T09:27:50.975Z,5831.00
2022-07-31T09:28:50.756Z,5846.00
2022-07-31T09:29:50.750Z,5921.00
2022-07-31T09:30:56.249Z,5910.00
2022-07-31T09:31:51.787Z,6028.00
2022-07-31T09:32:50.725Z,5980.00
2022-07-31T09:33:50.923Z,6065.00
2022-07-31T09:34:50.727Z,5880.00
2022-07-31T09:35:50.702Z,6048.00
2022-07-31T09:36:50.707Z,6037.00
2022-07-31T09:37:50.686Z,6031.00
2022-07-31T09:38:50.673Z,6090.00
2022-07-31T09:39:52.423Z,6026.00
2022-07-31T09:40:57.872Z,6147.00
2022-07-31T09:42:01.786Z,6195.00
2022-07-31T09:42:55.335Z,6281.00
2022-07-31T09:43:52.690Z,6299.00
2022-07-31T09:44:50.833Z,6325.00
2022-07-31T09:45:50.619Z,6381.00
2022-07-31T09:46:50.618Z,6413.00
2022-07-31T09:47:52.665Z,6491.00
2022-07-31T09:48:50.673Z,6433.00
2022-07-31T09:50:21.341Z,6627.00
2022-07-31T09:51:21.307Z,6586.00
2022-07-31T09:52:21.299Z,6604.00
2022-07-31T09:53:21.292Z,6577.00
2022-07-31T09:54:21.279Z,6721.00
2022-07-31T09:55:21.272Z,6886.00
2022-07-31T09:56:21.262Z,6904.00
2022-07-31T09:57:21.256Z,7068.00
2022-07-31T09:58:21.246Z,7058.00
2022-07-31T09:59:21.242Z,7167.00
2022-07-31T10:00:21.229Z,7316.00
2022-07-31T10:01:21.299Z,7505.00
2022-07-31T10:02:21.211Z,7812.00
2022-07-31T10:03:21.212Z,7833.00
2022-07-31T10:04:21.195Z,8001.00
2022-07-31T10:05:21.192Z,8085.00
2022-07-31T10:06:21.181Z,8172.00
2022-07-31T10:07:31.910Z,8516.00
2022-07-31T10:08:59.867Z,9071.00
2022-07-31T10:10:02.106Z,8927.00
2022-07-31T10:10:59.841Z,9037.00
2022-07-31T10:12:00.043Z,9615.00
2022-07-31T10:13:01.065Z,9349.00
2022-07-31T10:13:59.818Z,9441.00
2022-07-31T10:14:59.810Z,10042.00
2022-07-31T10:16:00.008Z,10344.00
2022-07-31T10:16:59.794Z,10712.00
2022-07-31T10:17:59.785Z,11221.00
2022-07-31T10:18:59.980Z,12016.00
2022-07-31T10:19:59.770Z,12322.00
2022-07-31T10:20:59.768Z,12908.00
2022-07-31T10:21:59.771Z,13685.00
2022-07-31T10:23:01.751Z,15742.00
2022-07-31T10:23:59.741Z,18130.00
2022-07-31T10:24:59.953Z,19437.00
2022-07-31T10:26:00.132Z,20725.00
2022-07-31T10:27:01.695Z,23371.00
2022-07-31T10:27:59.713Z,26381.00
2022-07-31T10:29:42.455Z,19307.00
2022-07-31T10:30:48.453Z,13741.00
2022-07-31T10:31:42.428Z,17909.00
2022-07-31T10:32:48.639Z,14267.00
2022-07-31T10:33:44.560Z,82498.00
2022-07-31T10:34:42.811Z,82828.00
2022-07-31T10:35:42.399Z,82344.00
2022-07-31T10:36:42.391Z,83052.00
2022-07-31T10:37:42.382Z,82257.00
2022-07-31T10:38:42.373Z,83015.00
2022-07-31T10:39:42.366Z,83525.00
2022-07-31T10:40:48.572Z,82219.00
2022-07-31T10:41:42.358Z,79373.00
2022-07-31T10:43:59.749Z,79157.00
2022-07-31T10:44:59.838Z,79548.00
2022-07-31T10:46:40.419Z,81316.00
2022-07-31T10:48:13.458Z,82095.00
2022-07-31T10:49:13.482Z,82173.00
2022-07-31T10:50:13.236Z,81700.00
2022-07-31T10:51:13.221Z,80742.00
2022-07-31T10:52:13.421Z,81263.00
2022-07-31T10:53:19.213Z,82298.00
2022-07-31T10:54:13.199Z,83636.00
2022-07-31T10:55:13.413Z,82582.00
2022-07-31T10:56:13.187Z,81123.00
2022-07-31T10:57:13.181Z,81444.00
2022-07-31T10:58:13.370Z,83086.00
2022-07-31T10:59:13.165Z,83355.00
2022-07-31T11:00:13.155Z,81708.00
2022-07-31T11:01:17.392Z,81807.00
2022-07-31T11:02:15.490Z,81420.00
2022-07-31T11:03:13.333Z,82064.00
2022-07-31T11:04:14.768Z,82499.00
2022-07-31T11:05:21.333Z,83511.00
2022-07-31T11:06:13.116Z,82766.00
2022-07-31T11:07:19.115Z,81707.00
2022-07-31T11:08:14.140Z,83245.00
2022-07-31T11:09:13.094Z,83396.00
2022-07-31T11:10:13.100Z,82715.00
2022-07-31T11:11:13.283Z,81926.00
2022-07-31T11:12:13.090Z,80838.00
2022-07-31T11:13:13.281Z,82974.00
2022-07-31T11:14:13.062Z,81790.00
2022-07-31T11:15:19.068Z,81029.00
2022-07-31T11:16:15.310Z,82039.00
2022-07-31T11:17:13.047Z,81682.00
2022-07-31T11:18:20.992Z,81974.00
2022-07-31T11:19:14.072Z,81569.00
2022-07-31T11:20:13.024Z,82219.00
2022-07-31T11:21:37.115Z,82492.00
2022-07-31T11:22:31.698Z,82402.00
2022-07-31T11:23:14.446Z,77775.00
2022-07-31T11:24:13.004Z,79860.00
2022-07-31T11:25:12.999Z,79314.00
2022-07-31T11:26:12.989Z,82136.00
2022-07-31T11:27:13.386Z,77854.00
2022-07-31T11:28:12.974Z,77394.00
2022-07-31T11:30:01.281Z,76153.00
2022-07-31T11:30:13.998Z,76106.00
2022-07-31T11:31:18.966Z,77421.00
2022-07-31T11:32:13.146Z,77153.00
2022-07-31T11:33:19.151Z,66645.00
2022-07-31T11:34:12.938Z,20541.00
2022-07-31T11:35:13.137Z,8088.00
2022-07-31T11:36:18.933Z,3061.00
2022-07-31T11:37:14.356Z,10469.00
2022-07-31T11:38:12.914Z,75871.00
2022-07-31T11:39:18.916Z,75890.00
2022-07-31T11:40:13.932Z,78061.00
2022-07-31T11:41:14.306Z,76998.00
2022-07-31T11:42:59.797Z,76113.00
2022-07-31T11:43:48.598Z,76773.00
2022-07-31T11:44:47.558Z,83243.00
2022-07-31T11:45:48.078Z,81122.00
2022-07-31T11:46:47.544Z,82503.00
2022-07-31T11:48:09.864Z,82141.00
2022-07-31T11:48:48.615Z,78164.00
2022-07-31T11:49:48.977Z,78503.00
2022-07-31T11:51:32.276Z,78519.00
2022-07-31T11:52:39.021Z,79062.00
2022-07-31T11:53:33.287Z,79251.00
2022-07-31T11:54:38.469Z,79239.00
2022-07-31T11:55:32.850Z,77719.00
2022-07-31T11:56:32.233Z,76353.00
2022-07-31T11:57:51.152Z,76104.00
2022-07-31T11:58:33.258Z,76191.00
2022-07-31T12:00:26.769Z,76092.00
2022-07-31T12:01:20.142Z,76085.00
2022-07-31T12:02:19.155Z,76176.00
2022-07-31T12:03:20.949Z,76204.00
2022-07-31T12:04:25.095Z,76207.00
2022-07-31T12:06:03.588Z,78783.00
2022-07-31T12:07:03.795Z,80640.00
2022-07-31T12:07:57.554Z,77391.00
2022-07-31T12:08:57.754Z,76274.00
2022-07-31T12:10:32.457Z,76200.00
2022-07-31T12:11:34.489Z,76070.00
2022-07-31T12:12:32.432Z,76112.00
2022-07-31T12:13:32.627Z,77520.00
2022-07-31T12:14:32.426Z,77373.00
2022-07-31T12:15:32.411Z,78557.00
2022-07-31T12:16:34.615Z,78553.00
2022-07-31T12:18:03.152Z,78356.00
2022-07-31T12:19:09.165Z,79604.00
2022-07-31T12:20:03.188Z,80751.00
2022-07-31T12:21:05.379Z,79938.00
2022-07-31T12:22:05.119Z,79014.00
2022-07-31T12:23:03.113Z,77518.00
2022-07-31T12:24:03.116Z,77057.00
2022-07-31T12:25:09.313Z,80974.00
2022-07-31T12:26:03.304Z,81441.00
2022-07-31T12:27:05.394Z,81427.00
2022-07-31T12:28:03.090Z,81899.00
2022-07-31T12:29:03.480Z,81667.00
2022-07-31T12:30:05.335Z,81984.00
2022-07-31T12:31:57.894Z,81765.00
2022-07-31T12:33:04.096Z,82959.00
2022-07-31T12:33:57.875Z,82604.00
2022-07-31T12:34:58.114Z,83024.00
2022-07-31T12:35:59.867Z,81889.00
2022-07-31T12:36:57.856Z,81314.00
2022-07-31T12:37:58.261Z,80052.00
2022-07-31T12:39:47.756Z,81802.00
2022-07-31T12:40:37.781Z,81371.00
2022-07-31T12:41:42.752Z,80069.00
2022-07-31T12:42:41.591Z,81356.00
2022-07-31T12:43:38.523Z,81334.00
2022-07-31T12:45:31.294Z,80292.00
2022-07-31T12:46:31.279Z,81392.00
2022-07-31T12:47:31.267Z,82139.00
2022-07-31T12:48:36.281Z,81404.00
2022-07-31T12:49:33.350Z,80022.00
2022-07-31T12:51:06.152Z,79348.00
2022-07-31T12:52:05.931Z,79785.00
2022-07-31T12:53:07.986Z,80200.00
2022-07-31T12:54:12.133Z,80961.00
2022-07-31T12:55:05.928Z,80921.00
2022-07-31T12:56:11.933Z,80869.00
2022-07-31T12:57:07.479Z,80183.00
2022-07-31T12:58:06.104Z,78215.00
2022-07-31T12:59:05.901Z,75359.00
2022-07-31T13:00:11.907Z,74178.00
2022-07-31T13:01:05.892Z,75109.00
2022-07-31T13:02:06.020Z,76893.00
2022-07-31T13:03:05.886Z,77741.00
2022-07-31T13:04:05.874Z,78270.00
2022-07-31T13:05:05.872Z,79288.00
2022-07-31T13:06:11.879Z,79866.00
2022-07-31T13:07:11.863Z,79299.00
2022-07-31T13:08:05.860Z,78669.00
2022-07-31T13:09:08.101Z,79424.00
2022-07-31T13:10:19.803Z,79451.00
2022-07-31T13:11:07.838Z,77782.00
2022-07-31T13:12:05.847Z,77691.00
2022-07-31T13:13:08.087Z,77966.00
2022-07-31T13:14:05.827Z,77892.00
2022-07-31T13:16:28.809Z,76980.00
2022-07-31T13:17:28.777Z,77422.00
2022-07-31T13:18:28.976Z,77797.00
2022-07-31T13:19:30.814Z,79229.00
2022-07-31T13:20:28.957Z,78725.00
2022-07-31T13:21:28.755Z,77994.00
2022-07-31T13:22:28.750Z,77789.00
2022-07-31T13:23:28.949Z,77076.00
2022-07-31T13:24:34.741Z,77871.00
2022-07-31T13:25:28.730Z,78649.00
2022-07-31T13:26:29.132Z,77138.00
2022-07-31T13:27:29.760Z,76449.00
2022-07-31T13:28:28.717Z,77329.00
2022-07-31T13:29:28.711Z,77813.00
2022-07-31T13:30:28.712Z,77252.00
2022-07-31T13:31:28.701Z,76810.00
2022-07-31T13:32:28.697Z,76917.00
2022-07-31T13:33:28.698Z,76950.00
2022-07-31T13:34:34.897Z,76414.00
2022-07-31T13:35:29.323Z,75679.00
2022-07-31T13:36:31.708Z,77131.00
2022-07-31T13:37:28.673Z,78835.00
2022-07-31T13:38:28.668Z,80577.00
2022-07-31T13:39:28.927Z,82336.00
2022-07-31T13:40:28.678Z,82442.00
2022-07-31T13:41:28.657Z,82883.00
2022-07-31T13:42:29.948Z,80439.00
2022-07-31T13:43:30.698Z,79911.00
2022-07-31T13:44:28.905Z,80620.00
2022-07-31T13:45:28.840Z,79570.00
2022-07-31T13:46:32.890Z,80211.00
2022-07-31T13:47:28.624Z,82308.00
2022-07-31T13:48:29.654Z,80885.00
2022-07-31T13:49:28.684Z,82243.00
2022-07-31T13:50:28.614Z,81952.00
2022-07-31T13:51:29.189Z,81385.00
2022-07-31T13:52:28.604Z,81599.00
2022-07-31T13:53:28.591Z,80543.00
2022-07-31T13:54:28.791Z,81555.00
2022-07-31T13:55:28.791Z,81001.00
2022-07-31T13:56:36.781Z,81259.00
2022-07-31T13:57:29.613Z,82715.00
2022-07-31T13:58:30.574Z,81806.00
2022-07-31T13:59:34.590Z,82224.00
2022-07-31T14:00:30.657Z,82278.00
2022-07-31T14:02:02.999Z,82697.00
2022-07-31T14:02:29.833Z,82182.00
2022-07-31T14:03:28.741Z,81171.00
2022-07-31T14:04:38.807Z,80412.00
2022-07-31T14:05:28.532Z,79364.00
2022-07-31T14:06:28.627Z,78958.00
2022-07-31T14:07:45.445Z,80263.00
2022-07-31T14:08:49.994Z,81454.00
2022-07-31T14:09:29.542Z,81669.00
2022-07-31T14:10:28.713Z,81392.00
2022-07-31T14:11:28.493Z,82791.00
2022-07-31T14:12:28.690Z,83098.00
2022-07-31T14:13:28.688Z,81423.00
2022-07-31T14:14:28.882Z,80677.00
2022-07-31T14:15:30.679Z,79500.00
2022-07-31T14:16:28.470Z,80929.00
2022-07-31T14:17:28.459Z,82941.00
2022-07-31T14:18:28.660Z,83144.00
2022-07-31T14:21:08.300Z,80179.00
2022-07-31T14:22:02.264Z,80375.00
2022-07-31T14:23:08.284Z,80491.00
2022-07-31T14:24:02.261Z,79221.00
2022-07-31T14:25:02.255Z,79266.00
2022-07-31T14:26:02.439Z,80105.00
2022-07-31T14:27:48.941Z,80087.00
2022-07-31T14:28:48.920Z,79658.00
2022-07-31T14:29:48.915Z,78403.00
2022-07-31T14:30:49.653Z,76278.00
2022-07-31T14:31:48.904Z,76085.00
2022-07-31T14:33:51.838Z,76285.00
2022-07-31T14:35:02.382Z,77605.00
2022-07-31T14:35:54.644Z,77965.00
2022-07-31T14:36:51.805Z,79289.00
2022-07-31T14:37:51.796Z,79152.00
2022-07-31T14:38:51.789Z,78315.00
2022-07-31T14:39:51.789Z,78570.00
2022-07-31T14:41:42.545Z,77798.00
2022-07-31T14:42:44.534Z,77370.00
2022-07-31T14:43:42.519Z,76731.00
2022-07-31T14:44:42.665Z,76171.00
2022-07-31T14:45:51.939Z,75720.00
2022-07-31T14:46:43.536Z,76296.00
2022-07-31T14:47:42.492Z,76579.00
2022-07-31T14:48:42.483Z,76204.00
2022-07-31T14:50:07.265Z,75629.00
2022-07-31T14:50:43.711Z,76000.00
2022-07-31T14:52:25.217Z,73654.00
2022-07-31T14:53:31.408Z,72836.00
2022-07-31T14:54:31.198Z,32293.00
2022-07-31T14:55:25.182Z,78615.00
2022-07-31T14:56:45.483Z,78909.00
2022-07-31T14:57:32.219Z,71446.00
2022-07-31T14:58:25.167Z,35483.00
2022-07-31T14:59:25.362Z,25455.00
2022-07-31T15:00:25.149Z,22272.00
2022-07-31T15:01:25.242Z,19351.00
2022-07-31T15:02:25.138Z,16898.00
2022-07-31T15:03:25.128Z,15571.00
2022-07-31T15:04:31.534Z,13996.00
2022-07-31T15:06:39.767Z,13172.00
2022-07-31T15:06:53.672Z,12242.00
2022-07-31T15:07:35.319Z,11830.00
2022-07-31T15:08:26.127Z,11530.00
2022-07-31T15:09:25.085Z,11342.00
2022-07-31T15:10:25.088Z,10982.00
2022-07-31T15:11:48.537Z,10912.00
2022-07-31T15:12:26.305Z,10688.00
2022-07-31T15:13:25.475Z,10562.00
2022-07-31T15:14:25.055Z,10586.00
2022-07-31T15:15:25.044Z,10168.00
2022-07-31T15:16:25.034Z,10176.00
2022-07-31T15:17:25.028Z,10041.00
2022-07-31T15:18:25.731Z,10120.00
2022-07-31T15:19:25.008Z,9929.00
2022-07-31T15:20:32.817Z,9893.00
2022-07-31T15:21:31.016Z,9717.00
2022-07-31T15:22:24.982Z,9782.00
2022-07-31T15:23:25.024Z,9627.00
2022-07-31T15:24:26.972Z,9657.00